createdAt,value
2019-02-05T00:07:13.540Z,64.00
2019-02-05T00:12:38.907Z,63.80
2019-02-05T00:15:01.676Z,63.10
2019-02-05T00:20:25.853Z,63.00
2019-02-05T00:23:21.580Z,63.00
2019-02-05T00:26:06.225Z,63.10
2019-02-05T00:32:00.007Z,63.80
2019-02-05T00:34:56.380Z,64.40
2019-02-05T00:38:43.018Z,64.40
2019-02-05T00:41:56.924Z,64.30
2019-02-05T00:54:31.678Z,64.40
2019-02-05T00:57:32.518Z,64.80
2019-02-05T01:03:40.913Z,64.70
2019-02-05T01:07:10.211Z,64.50
2019-02-05T01:10:15.157Z,64.10
2019-02-05T01:13:05.549Z,64.40
2019-02-05T01:19:35.617Z,63.70
2019-02-05T01:26:06.780Z,64.40
2019-02-05T01:28:50.498Z,64.10
2019-02-05T01:34:46.136Z,64.30
2019-02-05T01:37:39.708Z,64.20
2019-02-05T01:40:16.401Z,64.40
2019-02-05T01:42:51.077Z,64.70
2019-02-05T01:46:11.773Z,64.60
2019-02-05T01:49:07.637Z,64.40
2019-02-05T01:52:00.132Z,64.30
2019-02-05T01:55:03.164Z,64.30
2019-02-05T01:57:58.608Z,63.80
2019-02-05T02:00:42.932Z,63.50
2019-02-05T02:04:14.358Z,63.40
2019-02-05T02:12:46.208Z,63.50
2019-02-05T02:15:38.657Z,63.70
2019-02-05T02:22:32.698Z,62.90
2019-02-05T02:29:50.794Z,63.90
2019-02-05T02:39:15.481Z,64.10
2019-02-05T02:49:28.599Z,63.40
2019-02-05T02:52:42.533Z,63.90
2019-02-05T02:59:41.653Z,64.40
2019-02-05T03:05:05.257Z,63.70
2019-02-05T03:06:57.954Z,64.00
2019-02-05T03:10:12.442Z,64.30
2019-02-05T03:13:13.981Z,63.60
2019-02-05T03:15:56.405Z,63.90
2019-02-05T03:18:29.565Z,64.30
2019-02-05T03:21:23.094Z,63.80
2019-02-05T03:24:11.145Z,63.50
2019-02-05T03:27:17.158Z,63.70
2019-02-05T03:29:57.494Z,63.20
2019-02-05T03:32:40.925Z,63.40
2019-02-05T03:36:13.612Z,64.00
2019-02-05T03:38:44.587Z,63.70
2019-02-05T03:41:28.811Z,63.80
2019-02-05T03:43:57.382Z,63.60
2019-02-05T03:57:38.048Z,63.70
2019-02-05T04:04:43.319Z,63.50
2019-02-05T04:08:17.617Z,63.20
2019-02-05T04:15:53.108Z,63.40
2019-02-05T04:19:11.358Z,63.00
2019-02-05T04:23:10.688Z,62.90
2019-02-05T04:26:31.773Z,62.90
2019-02-05T04:37:26.404Z,63.50
2019-02-05T04:40:34.239Z,63.20
2019-02-05T04:43:53.030Z,63.50
2019-02-05T04:47:31.017Z,63.50
2019-02-05T04:54:56.241Z,63.50
2019-02-05T04:58:13.542Z,63.10
2019-02-05T05:05:18.370Z,63.00
2019-02-05T05:08:24.614Z,63.10
2019-02-05T05:14:49.725Z,62.50
2019-02-05T05:29:21.627Z,62.80
2019-02-05T05:32:47.976Z,62.70
2019-02-05T05:35:21.628Z,62.80
2019-02-05T05:38:31.909Z,63.20
2019-02-05T05:41:13.979Z,62.50
2019-02-05T05:51:35.087Z,62.50
2019-02-05T05:54:34.514Z,61.70
2019-02-05T06:01:21.253Z,61.60
2019-02-05T06:07:22.404Z,61.40
2019-02-05T06:10:15.365Z,62.00
2019-02-05T06:19:12.870Z,62.20
2019-02-05T06:22:51.609Z,61.50
2019-02-05T06:26:14.916Z,61.50
2019-02-05T06:28:57.588Z,61.70
2019-02-05T06:34:12.621Z,61.90
2019-02-05T06:36:52.775Z,61.90
2019-02-05T06:39:43.396Z,62.30
2019-02-05T06:42:25.489Z,62.30
2019-02-05T06:45:21.246Z,62.00
2019-02-05T06:47:52.998Z,61.80
2019-02-05T06:50:36.865Z,61.60
2019-02-05T06:53:24.069Z,61.80
2019-02-05T06:56:04.984Z,61.80
2019-02-05T06:59:06.331Z,61.50
2019-02-05T07:01:36.655Z,61.60
2019-02-05T07:04:05.449Z,61.50
2019-02-05T07:06:35.076Z,61.80
2019-02-05T07:09:10.857Z,61.30
2019-02-05T07:12:07.141Z,61.90
2019-02-05T07:14:43.115Z,61.70
2019-02-05T07:17:26.818Z,61.40
2019-02-05T07:20:30.756Z,61.50
2019-02-05T07:23:35.073Z,61.60
2019-02-05T07:26:49.634Z,61.50
2019-02-05T07:29:49.555Z,61.80
2019-02-05T07:32:50.624Z,61.80
2019-02-05T07:38:46.148Z,62.10
2019-02-05T07:42:08.250Z,62.20
2019-02-05T07:44:28.555Z,62.30
2019-02-05T07:51:01.464Z,62.20
2019-02-05T07:54:08.006Z,62.30
2019-02-05T07:56:54.161Z,62.30
2019-02-05T07:59:24.524Z,62.60
2019-02-05T08:02:06.240Z,62.80
2019-02-05T08:04:46.586Z,62.70
2019-02-05T08:07:33.163Z,62.70
2019-02-05T08:10:01.348Z,62.70
2019-02-05T08:12:54.587Z,62.60
2019-02-05T08:15:31.945Z,62.70
2019-02-05T08:18:12.581Z,62.60
2019-02-05T08:21:08.277Z,62.70
2019-02-05T08:23:34.798Z,62.40
2019-02-05T08:26:11.166Z,62.20
2019-02-05T08:28:41.137Z,62.10
2019-02-05T08:31:29.047Z,62.20
2019-02-05T08:34:03.949Z,62.40
2019-02-05T08:36:32.452Z,62.40
2019-02-05T08:39:12.674Z,62.50
2019-02-05T08:45:14.329Z,62.20
2019-02-05T08:47:46.676Z,62.70
2019-02-05T08:50:19.793Z,62.30
2019-02-05T08:52:48.449Z,62.20
2019-02-05T08:55:25.304Z,62.60
2019-02-05T08:57:54.891Z,62.20
2019-02-05T09:00:24.988Z,62.50
2019-02-05T09:02:53.610Z,62.60
2019-02-05T09:05:22.915Z,62.60
2019-02-05T09:07:51.388Z,62.30
2019-02-05T09:13:38.264Z,62.40
2019-02-05T09:16:49.624Z,62.40
2019-02-05T09:19:32.985Z,62.40
2019-02-05T09:22:08.427Z,62.40
2019-02-05T09:24:36.623Z,62.60
2019-02-05T09:27:25.113Z,62.60
2019-02-05T09:32:37.758Z,62.70
2019-02-05T09:35:06.810Z,62.70
2019-02-05T09:37:35.021Z,62.80
2019-02-05T09:40:02.814Z,62.40
2019-02-05T09:42:30.544Z,62.20
2019-02-05T09:44:58.306Z,61.70
2019-02-05T09:47:26.154Z,61.70
2019-02-05T09:49:54.290Z,61.70
2019-02-05T09:52:22.084Z,62.10
2019-02-05T09:54:50.378Z,62.40
2019-02-05T09:57:18.247Z,62.00
2019-02-05T09:59:46.060Z,62.40
2019-02-05T10:02:14.891Z,62.10
2019-02-05T10:04:45.121Z,62.10
2019-02-05T10:07:14.620Z,62.00
2019-02-05T10:09:43.636Z,61.90
2019-02-05T10:12:11.897Z,61.80
2019-02-05T10:14:45.697Z,61.80
2019-02-05T10:17:14.814Z,61.80
2019-02-05T10:19:57.323Z,61.60
2019-02-05T10:36:19.144Z,61.60
2019-02-05T10:48:21.060Z,61.30
2019-02-05T11:11:01.507Z,61.10
2019-02-05T11:18:32.146Z,60.60
2019-02-05T11:21:44.038Z,60.80
2019-02-05T11:28:54.493Z,60.50
2019-02-05T11:34:43.508Z,59.90
2019-02-05T11:37:43.603Z,60.20
2019-02-05T11:44:19.881Z,59.90
2019-02-05T11:49:33.810Z,59.60
2019-02-05T11:52:04.796Z,59.50
2019-02-05T11:54:36.848Z,60.00
2019-02-05T11:58:02.839Z,60.00
2019-02-05T13:12:39.153Z,60.30
2019-02-05T13:15:07.253Z,60.20
2019-02-05T13:17:36.002Z,60.20
2019-02-05T13:20:12.382Z,60.50
2019-02-05T13:22:49.172Z,60.70
2019-02-05T13:25:26.240Z,60.80
2019-02-05T13:27:55.773Z,60.60
2019-02-05T13:30:30.917Z,60.30
2019-02-05T13:33:00.683Z,60.00
2019-02-05T13:35:35.840Z,60.30
2019-02-05T13:38:26.261Z,59.90
2019-02-05T13:41:07.169Z,59.90
2019-02-05T13:43:45.876Z,60.20
2019-02-05T13:46:19.589Z,60.20
2019-02-05T13:48:51.578Z,60.00
2019-02-05T13:51:34.361Z,59.90
2019-02-05T13:57:48.382Z,60.00
2019-02-05T14:00:37.497Z,60.20
2019-02-05T14:03:11.305Z,60.40
2019-02-05T14:06:10.818Z,60.60
2019-02-05T14:24:27.825Z,60.70
2019-02-05T14:36:39.265Z,60.90
2019-02-05T14:44:38.020Z,61.40
2019-02-05T14:50:59.443Z,61.40
2019-02-05T15:01:07.676Z,61.50
2019-02-05T15:04:29.426Z,61.60
2019-02-05T15:06:57.646Z,61.70
2019-02-05T15:09:25.512Z,62.00
2019-02-05T15:11:53.358Z,62.00
2019-02-05T15:14:21.693Z,62.00
2019-02-05T15:16:52.368Z,62.10
2019-02-05T15:19:20.362Z,62.20
2019-02-05T15:21:48.342Z,62.30
2019-02-05T15:24:16.987Z,62.50
2019-02-05T15:26:45.628Z,62.60
2019-02-05T15:29:13.296Z,62.80
2019-02-05T15:31:41.274Z,63.10
2019-02-05T15:34:21.284Z,62.90
2019-02-05T15:36:50.243Z,63.50
2019-02-05T15:39:18.282Z,63.50
2019-02-05T15:41:48.463Z,63.60
2019-02-05T15:44:16.588Z,63.60
2019-02-05T15:46:44.335Z,63.90
2019-02-05T15:49:12.608Z,63.90
2019-02-05T15:51:40.525Z,63.50
2019-02-05T15:54:08.415Z,63.40
2019-02-05T15:56:36.190Z,63.70
2019-02-05T15:59:07.534Z,63.90
2019-02-05T16:01:39.433Z,63.90
2019-02-05T16:04:08.119Z,64.10
2019-02-05T16:06:37.062Z,63.80
2019-02-05T16:09:10.708Z,64.10
2019-02-05T16:11:49.559Z,64.10
2019-02-05T16:14:22.822Z,64.00
2019-02-05T16:16:57.530Z,64.20
2019-02-05T16:19:34.101Z,64.40
2019-02-05T16:22:13.663Z,64.20
2019-02-05T16:24:49.873Z,64.20
2019-02-05T16:27:25.649Z,64.10
2019-02-05T16:29:56.204Z,64.00
2019-02-05T16:36:06.436Z,64.20
2019-02-05T16:38:38.601Z,64.20
2019-02-05T16:41:08.891Z,64.40
2019-02-05T16:43:48.546Z,64.50
2019-02-05T16:46:41.612Z,64.40
2019-02-05T16:49:23.729Z,64.60
2019-02-05T16:55:40.525Z,64.30
2019-02-05T16:58:32.170Z,64.20
2019-02-05T17:01:05.312Z,64.30
2019-02-05T17:04:19.683Z,64.30
2019-02-05T17:07:03.915Z,64.50
2019-02-05T17:09:45.123Z,64.50
2019-02-05T17:12:20.495Z,64.50
2019-02-05T17:14:49.307Z,64.40
2019-02-05T17:17:20.690Z,64.50
2019-02-05T17:22:48.410Z,64.40
2019-02-05T17:27:46.688Z,64.40
2019-02-05T17:30:20.870Z,64.00
2019-02-05T17:33:01.464Z,63.90
2019-02-05T17:35:39.645Z,63.90
2019-02-05T17:38:11.202Z,64.10
2019-02-05T17:40:54.579Z,64.60
2019-02-05T17:43:23.224Z,64.90
2019-02-05T17:46:20.982Z,64.70
2019-02-05T17:48:59.845Z,64.60
2019-02-05T17:54:05.502Z,63.80
2019-02-05T17:56:37.026Z,64.00
2019-02-05T17:59:06.564Z,63.90
2019-02-05T18:01:35.557Z,63.90
2019-02-05T18:04:08.343Z,63.70
2019-02-05T18:06:36.472Z,63.60
2019-02-05T18:09:09.198Z,63.70
2019-02-05T18:11:55.533Z,63.90
2019-02-05T18:14:34.940Z,63.90
2019-02-05T18:17:07.441Z,63.70
2019-02-05T18:19:38.895Z,63.60
2019-02-05T18:22:32.507Z,63.70
2019-02-05T18:25:06.290Z,64.00
2019-02-05T18:27:34.652Z,64.10
2019-02-05T18:30:07.627Z,63.80
2019-02-05T18:35:27.434Z,64.00
2019-02-05T18:40:41.289Z,64.50
2019-02-05T18:43:09.424Z,64.90
2019-02-05T18:45:41.179Z,65.30
2019-02-05T18:48:12.817Z,65.70
2019-02-05T18:50:41.706Z,66.20
2019-02-05T18:53:12.052Z,66.00
2019-02-05T18:55:41.367Z,65.90
2019-02-05T18:58:09.999Z,66.00
2019-02-05T19:00:43.350Z,65.90
2019-02-05T19:03:16.277Z,66.00
2019-02-05T19:05:45.486Z,66.30
2019-02-05T19:08:19.335Z,66.80
2019-02-05T19:10:47.649Z,67.10
2019-02-05T19:13:15.878Z,67.90
2019-02-05T19:16:07.868Z,68.40
2019-02-05T19:18:37.075Z,68.60
2019-02-05T19:21:06.036Z,68.70
2019-02-05T19:23:44.551Z,68.60
2019-02-05T19:26:22.184Z,68.30
2019-02-05T19:28:52.970Z,68.30
2019-02-05T19:31:26.507Z,68.20
2019-02-05T19:33:58.751Z,67.80
2019-02-05T19:36:30.725Z,68.10
2019-02-05T19:39:02.902Z,68.30
2019-02-05T19:41:42.322Z,68.30
2019-02-05T19:44:16.762Z,68.00
2019-02-05T19:46:55.656Z,67.80
2019-02-05T19:49:36.324Z,68.30
2019-02-05T19:52:05.680Z,68.70
2019-02-05T19:54:37.823Z,69.00
2019-02-05T19:57:06.280Z,69.20
2019-02-05T19:59:34.823Z,68.80
2019-02-05T20:02:03.749Z,68.30
2019-02-05T20:04:46.247Z,68.20
2019-02-05T20:07:14.430Z,67.70
2019-02-05T20:12:14.677Z,67.70
2019-02-05T20:14:44.267Z,67.90
2019-02-05T20:17:23.606Z,68.10
2019-02-05T20:19:51.636Z,67.50
2019-02-05T20:22:21.232Z,67.10
2019-02-05T20:24:53.364Z,67.20
2019-02-05T20:27:21.776Z,67.50
2019-02-05T20:29:57.568Z,67.40
2019-02-05T20:32:36.559Z,67.30
2019-02-05T20:35:05.627Z,67.30
2019-02-05T20:37:34.243Z,67.10
2019-02-05T20:40:02.681Z,67.40
2019-02-05T20:42:56.430Z,67.40
2019-02-05T20:45:21.174Z,67.10
2019-02-05T20:47:49.294Z,67.00
2019-02-05T20:50:27.992Z,66.80
2019-02-05T20:53:14.260Z,67.30
2019-02-05T20:55:56.205Z,66.10
2019-02-05T20:59:01.975Z,65.80
2019-02-05T21:01:30.832Z,66.20
2019-02-05T21:04:02.964Z,66.40
2019-02-05T21:06:42.726Z,66.00
2019-02-05T21:09:31.382Z,65.90
2019-02-05T21:12:05.901Z,66.00
2019-02-05T21:14:41.606Z,65.80
2019-02-05T21:17:26.294Z,65.90
2019-02-05T21:19:58.605Z,65.70
2019-02-05T21:22:29.442Z,65.80
2019-02-05T21:25:12.872Z,65.60
2019-02-05T21:27:47.217Z,65.10
2019-02-05T21:30:18.838Z,65.30
2019-02-05T21:32:52.197Z,65.40
2019-02-05T21:35:21.846Z,65.40
2019-02-05T21:37:57.161Z,65.90
2019-02-05T21:40:26.686Z,65.90
2019-02-05T21:43:08.309Z,65.50
2019-02-05T21:45:37.493Z,65.40
2019-02-05T21:48:19.499Z,65.50
2019-02-05T21:51:11.827Z,65.80
2019-02-05T21:53:41.481Z,66.20
2019-02-05T21:56:12.690Z,66.40
2019-02-05T21:58:44.239Z,66.10
2019-02-05T22:01:14.385Z,66.20
2019-02-05T22:03:49.287Z,66.00
2019-02-05T22:06:17.596Z,66.90
2019-02-05T22:08:50.225Z,67.40
2019-02-05T22:11:24.785Z,66.70
2019-02-05T22:13:54.680Z,67.50
2019-02-05T22:16:27.884Z,67.40
2019-02-05T22:19:01.885Z,68.10
2019-02-05T22:21:33.936Z,67.70
2019-02-05T22:24:04.430Z,67.60
2019-02-05T22:26:35.008Z,67.80
2019-02-05T22:29:02.677Z,68.00
2019-02-05T22:31:34.461Z,67.80
2019-02-05T22:34:08.493Z,67.90
2019-02-05T22:36:43.102Z,68.50
2019-02-05T22:39:11.296Z,68.80
2019-02-05T22:41:41.040Z,68.90
2019-02-05T22:44:25.435Z,69.60
2019-02-05T22:46:54.941Z,70.30
2019-02-05T22:49:30.648Z,70.20
2019-02-05T22:52:01.094Z,70.10
2019-02-05T22:54:33.005Z,70.10
2019-02-05T22:57:05.603Z,69.90
2019-02-05T23:02:13.560Z,69.50
2019-02-05T23:05:28.808Z,70.00
2019-02-05T23:07:58.883Z,70.00
2019-02-05T23:11:22.078Z,70.10
2019-02-05T23:13:54.654Z,70.00
2019-02-05T23:16:33.804Z,69.90
2019-02-05T23:19:21.504Z,70.20
2019-02-05T23:21:53.772Z,70.00
2019-02-05T23:24:29.195Z,69.80
2019-02-05T23:26:57.655Z,69.50
2019-02-05T23:29:28.552Z,69.40
2019-02-05T23:31:56.953Z,69.90
2019-02-05T23:34:36.492Z,69.90
2019-02-05T23:37:15.523Z,70.20
2019-02-05T23:39:58.750Z,69.90
2019-02-05T23:42:26.888Z,69.50
2019-02-05T23:45:15.807Z,69.50
2019-02-05T23:47:44.275Z,69.80
2019-02-05T23:50:16.941Z,69.60
2019-02-05T23:58:37.030Z,69.40
